sensor_id;sensor_type;location;lat;lon;timestamp;P1;durP1;ratioP1;P2;durP2;ratioP2
78209;SDS011;67485;48.816;9.930;2023-03-31T00:02:01;6.43;;;1.73;;
78209;SDS011;67485;48.816;9.930;2023-03-31T00:04:38;6.05;;;1.58;;
78209;SDS011;67485;48.816;9.930;2023-03-31T00:07:11;5.90;;;1.40;;
78209;SDS011;67485;48.816;9.930;2023-03-31T00:09:38;3.53;;;1.23;;
78209;SDS011;67485;48.816;9.930;2023-03-31T00:12:06;5.40;;;1.60;;
78209;SDS011;67485;48.816;9.930;2023-03-31T00:14:32;6.65;;;1.90;;
78209;SDS011;67485;48.816;9.930;2023-03-31T00:16:57;4.37;;;1.60;;
78209;SDS011;67485;48.816;9.930;2023-03-31T00:19:23;5.65;;;1.80;;
78209;SDS011;67485;48.816;9.930;2023-03-31T00:21:49;4.97;;;1.67;;
78209;SDS011;67485;48.816;9.930;2023-03-31T00:24:16;4.57;;;1.58;;
78209;SDS011;67485;48.816;9.930;2023-03-31T00:26:43;4.53;;;1.33;;
78209;SDS011;67485;48.816;9.930;2023-03-31T00:29:10;6.93;;;1.83;;
78209;SDS011;67485;48.816;9.930;2023-03-31T00:31:37;6.25;;;1.42;;
78209;SDS011;67485;48.816;9.930;2023-03-31T00:34:03;5.60;;;1.63;;
78209;SDS011;67485;48.816;9.930;2023-03-31T00:36:30;8.25;;;1.40;;
78209;SDS011;67485;48.816;9.930;2023-03-31T00:38:57;5.53;;;1.50;;
78209;SDS011;67485;48.816;9.930;2023-03-31T00:41:26;7.40;;;1.60;;
78209;SDS011;67485;48.816;9.930;2023-03-31T00:49:16;6.10;;;1.70;;
78209;SDS011;67485;48.816;9.930;2023-03-31T00:51:54;4.47;;;1.60;;
78209;SDS011;67485;48.816;9.930;2023-03-31T00:54:29;4.77;;;1.60;;
78209;SDS011;67485;48.816;9.930;2023-03-31T00:56:58;4.43;;;1.60;;
78209;SDS011;67485;48.816;9.930;2023-03-31T00:59:28;4.53;;;1.52;;
78209;SDS011;67485;48.816;9.930;2023-03-31T01:01:56;3.95;;;1.50;;
78209;SDS011;67485;48.816;9.930;2023-03-31T01:04:28;5.15;;;1.45;;
78209;SDS011;67485;48.816;9.930;2023-03-31T01:07:06;4.57;;;1.60;;
78209;SDS011;67485;48.816;9.930;2023-03-31T01:09:42;4.25;;;1.52;;
78209;SDS011;67485;48.816;9.930;2023-03-31T01:12:14;8.15;;;3.10;;
78209;SDS011;67485;48.816;9.930;2023-03-31T01:14:42;10.13;;;3.50;;
78209;SDS011;67485;48.816;9.930;2023-03-31T01:17:08;13.38;;;5.65;;
78209;SDS011;67485;48.816;9.930;2023-03-31T01:48:07;5.77;;;1.97;;
78209;SDS011;67485;48.816;9.930;2023-03-31T01:51:20;7.22;;;2.22;;
78209;SDS011;67485;48.816;9.930;2023-03-31T02:01:59;4.97;;;1.50;;
78209;SDS011;67485;48.816;9.930;2023-03-31T02:04:31;3.05;;;1.42;;
78209;SDS011;67485;48.816;9.930;2023-03-31T02:07:03;7.47;;;1.70;;
78209;SDS011;67485;48.816;9.930;2023-03-31T02:09:40;5.10;;;1.20;;
78209;SDS011;67485;48.816;9.930;2023-03-31T02:12:09;3.90;;;1.40;;
78209;SDS011;67485;48.816;9.930;2023-03-31T02:14:37;7.03;;;1.47;;
78209;SDS011;67485;48.816;9.930;2023-03-31T02:17:07;4.75;;;1.50;;
78209;SDS011;67485;48.816;9.930;2023-03-31T02:19:42;4.13;;;1.40;;
78209;SDS011;67485;48.816;9.930;2023-03-31T02:22:11;6.45;;;1.33;;
78209;SDS011;67485;48.816;9.930;2023-03-31T02:24:38;5.43;;;1.60;;
78209;SDS011;67485;48.816;9.930;2023-03-31T02:27:15;9.90;;;1.73;;
78209;SDS011;67485;48.816;9.930;2023-03-31T02:29:46;6.53;;;1.38;;
78209;SDS011;67485;48.816;9.930;2023-03-31T02:34:57;5.28;;;1.20;;
78209;SDS011;67485;48.816;9.930;2023-03-31T02:37:25;5.35;;;1.08;;
78209;SDS011;67485;48.816;9.930;2023-03-31T02:39:54;7.40;;;1.27;;
78209;SDS011;67485;48.816;9.930;2023-03-31T02:42:23;6.18;;;1.67;;
78209;SDS011;67485;48.816;9.930;2023-03-31T02:44:50;7.30;;;1.30;;
78209;SDS011;67485;48.816;9.930;2023-03-31T02:47:17;7.45;;;1.48;;
78209;SDS011;67485;48.816;9.930;2023-03-31T02:49:50;6.97;;;1.60;;
78209;SDS011;67485;48.816;9.930;2023-03-31T03:12:24;6.70;;;1.80;;
78209;SDS011;67485;48.816;9.930;2023-03-31T03:17:45;5.57;;;1.73;;
78209;SDS011;67485;48.816;9.930;2023-03-31T03:20:13;7.33;;;1.73;;
78209;SDS011;67485;48.816;9.930;2023-03-31T03:22:40;5.90;;;1.60;;
78209;SDS011;67485;48.816;9.930;2023-03-31T03:25:08;7.25;;;1.40;;
78209;SDS011;67485;48.816;9.930;2023-03-31T03:27:36;5.47;;;1.50;;
78209;SDS011;67485;48.816;9.930;2023-03-31T03:30:02;6.00;;;1.30;;
78209;SDS011;67485;48.816;9.930;2023-03-31T03:32:30;4.03;;;1.33;;
78209;SDS011;67485;48.816;9.930;2023-03-31T03:34:58;8.30;;;1.88;;
78209;SDS011;67485;48.816;9.930;2023-03-31T03:37:25;7.38;;;1.58;;
78209;SDS011;67485;48.816;9.930;2023-03-31T03:39:50;7.30;;;1.40;;
78209;SDS011;67485;48.816;9.930;2023-03-31T03:42:16;9.47;;;1.80;;
78209;SDS011;67485;48.816;9.930;2023-03-31T03:44:42;5.13;;;1.20;;
78209;SDS011;67485;48.816;9.930;2023-03-31T03:47:07;4.63;;;1.45;;
78209;SDS011;67485;48.816;9.930;2023-03-31T03:49:33;6.77;;;1.40;;
78209;SDS011;67485;48.816;9.930;2023-03-31T03:51:59;6.22;;;1.38;;
78209;SDS011;67485;48.816;9.930;2023-03-31T03:54:24;5.13;;;1.67;;
78209;SDS011;67485;48.816;9.930;2023-03-31T03:56:50;7.88;;;1.92;;
78209;SDS011;67485;48.816;9.930;2023-03-31T03:59:16;9.07;;;1.90;;
78209;SDS011;67485;48.816;9.930;2023-03-31T04:01:41;6.03;;;1.40;;
78209;SDS011;67485;48.816;9.930;2023-03-31T04:04:07;5.80;;;1.47;;
78209;SDS011;67485;48.816;9.930;2023-03-31T04:06:33;7.07;;;1.58;;
78209;SDS011;67485;48.816;9.930;2023-03-31T04:08:58;5.70;;;1.63;;
78209;SDS011;67485;48.816;9.930;2023-03-31T04:11:24;7.70;;;1.67;;
78209;SDS011;67485;48.816;9.930;2023-03-31T04:13:50;6.23;;;1.50;;
78209;SDS011;67485;48.816;9.930;2023-03-31T04:16:16;5.28;;;1.23;;
78209;SDS011;67485;48.816;9.930;2023-03-31T04:18:42;5.93;;;1.80;;
78209;SDS011;67485;48.816;9.930;2023-03-31T04:21:13;7.22;;;2.42;;
78209;SDS011;67485;48.816;9.930;2023-03-31T04:23:47;4.53;;;2.33;;
78209;SDS011;67485;48.816;9.930;2023-03-31T04:26:16;8.50;;;2.40;;
78209;SDS011;67485;48.816;9.930;2023-03-31T04:28:50;4.40;;;1.63;;
78209;SDS011;67485;48.816;9.930;2023-03-31T04:31:16;6.90;;;1.50;;
78209;SDS011;67485;48.816;9.930;2023-03-31T04:33:54;5.85;;;1.90;;
78209;SDS011;67485;48.816;9.930;2023-03-31T04:36:20;8.80;;;1.73;;
78209;SDS011;67485;48.816;9.930;2023-03-31T04:38:47;11.30;;;2.05;;
78209;SDS011;67485;48.816;9.930;2023-03-31T04:41:19;7.20;;;1.97;;
78209;SDS011;67485;48.816;9.930;2023-03-31T04:43:45;8.02;;;2.22;;
78209;SDS011;67485;48.816;9.930;2023-03-31T04:46:11;5.25;;;2.00;;
78209;SDS011;67485;48.816;9.930;2023-03-31T04:48:37;6.00;;;2.10;;
78209;SDS011;67485;48.816;9.930;2023-03-31T04:51:03;6.43;;;2.53;;
78209;SDS011;67485;48.816;9.930;2023-03-31T04:53:29;6.38;;;2.20;;
78209;SDS011;67485;48.816;9.930;2023-03-31T04:55:54;8.93;;;2.53;;
78209;SDS011;67485;48.816;9.930;2023-03-31T04:58:20;7.43;;;2.47;;
78209;SDS011;67485;48.816;9.930;2023-03-31T05:00:46;6.87;;;2.20;;
78209;SDS011;67485;48.816;9.930;2023-03-31T05:03:12;6.57;;;1.90;;
78209;SDS011;67485;48.816;9.930;2023-03-31T05:05:37;5.27;;;2.10;;
78209;SDS011;67485;48.816;9.930;2023-03-31T05:08:03;6.20;;;1.90;;
78209;SDS011;67485;48.816;9.930;2023-03-31T05:10:29;8.07;;;1.90;;
78209;SDS011;67485;48.816;9.930;2023-03-31T05:12:55;7.40;;;2.22;;
78209;SDS011;67485;48.816;9.930;2023-03-31T05:15:21;8.27;;;2.00;;
78209;SDS011;67485;48.816;9.930;2023-03-31T05:17:48;7.78;;;1.90;;
78209;SDS011;67485;48.816;9.930;2023-03-31T05:20:15;8.65;;;2.30;;
78209;SDS011;67485;48.816;9.930;2023-03-31T05:22:41;6.70;;;2.05;;
78209;SDS011;67485;48.816;9.930;2023-03-31T05:25:07;7.70;;;2.10;;
78209;SDS011;67485;48.816;9.930;2023-03-31T05:27:33;5.93;;;2.10;;
78209;SDS011;67485;48.816;9.930;2023-03-31T05:30:00;5.40;;;2.25;;
78209;SDS011;67485;48.816;9.930;2023-03-31T05:32:27;9.20;;;3.35;;
78209;SDS011;67485;48.816;9.930;2023-03-31T05:34:53;11.90;;;3.83;;
78209;SDS011;67485;48.816;9.930;2023-03-31T05:37:23;6.22;;;2.38;;
78209;SDS011;67485;48.816;9.930;2023-03-31T05:39:49;8.70;;;3.08;;
78209;SDS011;67485;48.816;9.930;2023-03-31T05:42:15;5.95;;;2.30;;
78209;SDS011;67485;48.816;9.930;2023-03-31T05:44:41;6.03;;;2.40;;
78209;SDS011;67485;48.816;9.930;2023-03-31T05:47:06;6.43;;;2.47;;
78209;SDS011;67485;48.816;9.930;2023-03-31T05:49:32;4.93;;;2.13;;
78209;SDS011;67485;48.816;9.930;2023-03-31T05:51:58;9.75;;;2.25;;
78209;SDS011;67485;48.816;9.930;2023-03-31T05:54:24;9.90;;;2.37;;
78209;SDS011;67485;48.816;9.930;2023-03-31T05:56:50;11.13;;;2.58;;
78209;SDS011;67485;48.816;9.930;2023-03-31T05:59:16;7.97;;;2.57;;
78209;SDS011;67485;48.816;9.930;2023-03-31T06:01:42;8.40;;;2.75;;
78209;SDS011;67485;48.816;9.930;2023-03-31T06:04:08;6.83;;;2.57;;
78209;SDS011;67485;48.816;9.930;2023-03-31T06:06:33;7.78;;;2.50;;
78209;SDS011;67485;48.816;9.930;2023-03-31T06:09:02;6.45;;;2.55;;
78209;SDS011;67485;48.816;9.930;2023-03-31T06:11:28;8.13;;;2.53;;
78209;SDS011;67485;48.816;9.930;2023-03-31T06:13:54;7.90;;;2.60;;
78209;SDS011;67485;48.816;9.930;2023-03-31T06:16:20;9.38;;;3.10;;
78209;SDS011;67485;48.816;9.930;2023-03-31T06:18:46;7.47;;;3.23;;
78209;SDS011;67485;48.816;9.930;2023-03-31T06:21:15;11.90;;;3.25;;
78209;SDS011;67485;48.816;9.930;2023-03-31T06:23:42;8.55;;;3.05;;
78209;SDS011;67485;48.816;9.930;2023-03-31T06:26:13;7.80;;;3.10;;
78209;SDS011;67485;48.816;9.930;2023-03-31T06:28:40;11.37;;;3.70;;
78209;SDS011;67485;48.816;9.930;2023-03-31T06:31:10;7.88;;;3.40;;
78209;SDS011;67485;48.816;9.930;2023-03-31T06:33:39;9.63;;;3.85;;
78209;SDS011;67485;48.816;9.930;2023-03-31T06:36:06;6.90;;;2.90;;
78209;SDS011;67485;48.816;9.930;2023-03-31T06:38:33;10.63;;;3.00;;
78209;SDS011;67485;48.816;9.930;2023-03-31T06:41:00;8.87;;;3.60;;
78209;SDS011;67485;48.816;9.930;2023-03-31T06:43:26;13.07;;;3.50;;
78209;SDS011;67485;48.816;9.930;2023-03-31T06:45:53;7.63;;;3.15;;
78209;SDS011;67485;48.816;9.930;2023-03-31T06:48:19;6.22;;;3.40;;
78209;SDS011;67485;48.816;9.930;2023-03-31T06:50:45;8.40;;;2.90;;
78209;SDS011;67485;48.816;9.930;2023-03-31T06:53:10;8.43;;;2.93;;
78209;SDS011;67485;48.816;9.930;2023-03-31T06:55:36;6.67;;;3.60;;
78209;SDS011;67485;48.816;9.930;2023-03-31T06:58:03;6.15;;;2.97;;
78209;SDS011;67485;48.816;9.930;2023-03-31T07:00:29;8.50;;;3.38;;
78209;SDS011;67485;48.816;9.930;2023-03-31T07:02:56;6.20;;;2.72;;
78209;SDS011;67485;48.816;9.930;2023-03-31T07:05:21;8.07;;;2.90;;
78209;SDS011;67485;48.816;9.930;2023-03-31T07:07:54;8.10;;;3.08;;
78209;SDS011;67485;48.816;9.930;2023-03-31T07:10:21;8.68;;;3.00;;
78209;SDS011;67485;48.816;9.930;2023-03-31T07:12:47;6.70;;;3.03;;
78209;SDS011;67485;48.816;9.930;2023-03-31T07:15:14;8.60;;;2.77;;
78209;SDS011;67485;48.816;9.930;2023-03-31T07:17:40;10.27;;;2.85;;
78209;SDS011;67485;48.816;9.930;2023-03-31T07:20:07;6.15;;;2.88;;
78209;SDS011;67485;48.816;9.930;2023-03-31T07:22:40;8.02;;;3.28;;
78209;SDS011;67485;48.816;9.930;2023-03-31T07:25:10;7.25;;;3.35;;
78209;SDS011;67485;48.816;9.930;2023-03-31T07:27:37;6.37;;;3.00;;
78209;SDS011;67485;48.816;9.930;2023-03-31T07:30:05;6.25;;;3.10;;
78209;SDS011;67485;48.816;9.930;2023-03-31T07:32:31;7.85;;;3.10;;
78209;SDS011;67485;48.816;9.930;2023-03-31T07:34:57;11.07;;;3.50;;
78209;SDS011;67485;48.816;9.930;2023-03-31T07:37:24;7.73;;;3.63;;
78209;SDS011;67485;48.816;9.930;2023-03-31T07:39:49;9.30;;;3.22;;
78209;SDS011;67485;48.816;9.930;2023-03-31T07:42:15;7.18;;;3.30;;
78209;SDS011;67485;48.816;9.930;2023-03-31T07:44:41;7.93;;;2.30;;
78209;SDS011;67485;48.816;9.930;2023-03-31T07:47:07;5.32;;;1.83;;
78209;SDS011;67485;48.816;9.930;2023-03-31T07:49:33;5.23;;;1.63;;
78209;SDS011;67485;48.816;9.930;2023-03-31T07:52:00;4.25;;;1.55;;
78209;SDS011;67485;48.816;9.930;2023-03-31T07:54:26;5.43;;;1.80;;
78209;SDS011;67485;48.816;9.930;2023-03-31T07:56:52;2.70;;;1.52;;
78209;SDS011;67485;48.816;9.930;2023-03-31T07:59:18;3.97;;;1.50;;
78209;SDS011;67485;48.816;9.930;2023-03-31T08:01:44;3.53;;;1.47;;
78209;SDS011;67485;48.816;9.930;2023-03-31T08:04:13;3.55;;;1.50;;
78209;SDS011;67485;48.816;9.930;2023-03-31T08:06:39;5.25;;;1.67;;
78209;SDS011;67485;48.816;9.930;2023-03-31T08:09:05;3.87;;;1.37;;
78209;SDS011;67485;48.816;9.930;2023-03-31T08:11:33;4.97;;;1.13;;
78209;SDS011;67485;48.816;9.930;2023-03-31T08:13:59;4.05;;;1.40;;
78209;SDS011;67485;48.816;9.930;2023-03-31T08:16:25;3.37;;;1.27;;
78209;SDS011;67485;48.816;9.930;2023-03-31T08:18:51;4.93;;;1.50;;
78209;SDS011;67485;48.816;9.930;2023-03-31T08:21:16;4.10;;;1.03;;
78209;SDS011;67485;48.816;9.930;2023-03-31T08:23:42;5.47;;;1.30;;
78209;SDS011;67485;48.816;9.930;2023-03-31T08:26:12;3.50;;;1.20;;
78209;SDS011;67485;48.816;9.930;2023-03-31T08:28:42;4.47;;;1.33;;
78209;SDS011;67485;48.816;9.930;2023-03-31T08:31:08;3.58;;;1.20;;
78209;SDS011;67485;48.816;9.930;2023-03-31T08:33:35;2.85;;;1.27;;
78209;SDS011;67485;48.816;9.930;2023-03-31T08:36:02;2.20;;;1.17;;
78209;SDS011;67485;48.816;9.930;2023-03-31T08:38:30;2.85;;;0.95;;
78209;SDS011;67485;48.816;9.930;2023-03-31T08:41:00;1.95;;;1.00;;
78209;SDS011;67485;48.816;9.930;2023-03-31T08:43:28;2.95;;;0.95;;
78209;SDS011;67485;48.816;9.930;2023-03-31T08:45:58;2.20;;;1.10;;
78209;SDS011;67485;48.816;9.930;2023-03-31T08:48:29;2.90;;;1.00;;
78209;SDS011;67485;48.816;9.930;2023-03-31T08:51:03;4.25;;;1.05;;
78209;SDS011;67485;48.816;9.930;2023-03-31T08:53:36;2.65;;;0.90;;
78209;SDS011;67485;48.816;9.930;2023-03-31T08:56:06;3.92;;;0.80;;
78209;SDS011;67485;48.816;9.930;2023-03-31T08:58:42;2.45;;;1.00;;
78209;SDS011;67485;48.816;9.930;2023-03-31T09:06:42;3.35;;;0.80;;
78209;SDS011;67485;48.816;9.930;2023-03-31T09:12:06;3.78;;;1.10;;
78209;SDS011;67485;48.816;9.930;2023-03-31T09:14:40;5.57;;;0.77;;
78209;SDS011;67485;48.816;9.930;2023-03-31T09:17:20;3.80;;;1.20;;
78209;SDS011;67485;48.816;9.930;2023-03-31T09:19:55;4.22;;;0.95;;
78209;SDS011;67485;48.816;9.930;2023-03-31T09:22:27;3.20;;;0.90;;
78209;SDS011;67485;48.816;9.930;2023-03-31T09:27:36;1.50;;;0.80;;
78209;SDS011;67485;48.816;9.930;2023-03-31T09:32:48;4.95;;;1.30;;
78209;SDS011;67485;48.816;9.930;2023-03-31T09:35:29;3.58;;;1.10;;
78209;SDS011;67485;48.816;9.930;2023-03-31T09:37:58;3.90;;;1.15;;
78209;SDS011;67485;48.816;9.930;2023-03-31T09:40:24;3.33;;;0.93;;
78209;SDS011;67485;48.816;9.930;2023-03-31T09:42:57;4.03;;;1.00;;
78209;SDS011;67485;48.816;9.930;2023-03-31T09:45:26;2.55;;;0.75;;
78209;SDS011;67485;48.816;9.930;2023-03-31T09:47:53;3.58;;;1.10;;
78209;SDS011;67485;48.816;9.930;2023-03-31T09:50:21;5.03;;;0.90;;
78209;SDS011;67485;48.816;9.930;2023-03-31T09:52:51;3.03;;;1.07;;
78209;SDS011;67485;48.816;9.930;2023-03-31T09:55:21;7.25;;;1.33;;
78209;SDS011;67485;48.816;9.930;2023-03-31T09:57:49;2.63;;;1.10;;
78209;SDS011;67485;48.816;9.930;2023-03-31T10:00:16;4.50;;;1.00;;
78209;SDS011;67485;48.816;9.930;2023-03-31T10:02:50;3.13;;;0.80;;
78209;SDS011;67485;48.816;9.930;2023-03-31T10:08:23;3.03;;;0.95;;
78209;SDS011;67485;48.816;9.930;2023-03-31T10:10:50;2.85;;;0.90;;
78209;SDS011;67485;48.816;9.930;2023-03-31T10:13:18;2.37;;;0.70;;
78209;SDS011;67485;48.816;9.930;2023-03-31T10:15:49;1.73;;;0.80;;
78209;SDS011;67485;48.816;9.930;2023-03-31T10:18:17;3.45;;;1.10;;
78209;SDS011;67485;48.816;9.930;2023-03-31T10:20:48;3.42;;;0.82;;
78209;SDS011;67485;48.816;9.930;2023-03-31T10:25:41;3.70;;;1.33;;
78209;SDS011;67485;48.816;9.930;2023-03-31T10:28:11;3.70;;;0.93;;
78209;SDS011;67485;48.816;9.930;2023-03-31T10:30:40;2.83;;;0.70;;
78209;SDS011;67485;48.816;9.930;2023-03-31T10:33:17;3.75;;;0.95;;
78209;SDS011;67485;48.816;9.930;2023-03-31T10:35:53;1.73;;;0.70;;
78209;SDS011;67485;48.816;9.930;2023-03-31T10:38:38;3.50;;;1.15;;
78209;SDS011;67485;48.816;9.930;2023-03-31T10:41:09;3.40;;;0.93;;
78209;SDS011;67485;48.816;9.930;2023-03-31T10:43:40;3.10;;;1.00;;
78209;SDS011;67485;48.816;9.930;2023-03-31T10:46:07;7.00;;;1.27;;
78209;SDS011;67485;48.816;9.930;2023-03-31T10:48:34;5.53;;;1.10;;
78209;SDS011;67485;48.816;9.930;2023-03-31T10:53:49;4.47;;;1.00;;
78209;SDS011;67485;48.816;9.930;2023-03-31T10:58:54;4.05;;;1.08;;
78209;SDS011;67485;48.816;9.930;2023-03-31T11:09:53;3.03;;;1.30;;
78209;SDS011;67485;48.816;9.930;2023-03-31T11:12:43;4.40;;;1.38;;
78209;SDS011;67485;48.816;9.930;2023-03-31T11:15:20;7.83;;;1.10;;
78209;SDS011;67485;48.816;9.930;2023-03-31T11:18:40;5.53;;;1.60;;
78209;SDS011;67485;48.816;9.930;2023-03-31T11:21:14;5.63;;;1.42;;
78209;SDS011;67485;48.816;9.930;2023-03-31T11:40:43;3.90;;;1.10;;
78209;SDS011;67485;48.816;9.930;2023-03-31T11:43:19;5.13;;;1.27;;
78209;SDS011;67485;48.816;9.930;2023-03-31T11:48:45;6.25;;;1.40;;
78209;SDS011;67485;48.816;9.930;2023-03-31T11:51:23;7.20;;;1.80;;
78209;SDS011;67485;48.816;9.930;2023-03-31T11:53:53;4.78;;;1.42;;
78209;SDS011;67485;48.816;9.930;2023-03-31T11:56:32;3.10;;;1.00;;
78209;SDS011;67485;48.816;9.930;2023-03-31T11:59:01;7.18;;;1.20;;
78209;SDS011;67485;48.816;9.930;2023-03-31T12:01:40;5.63;;;0.90;;
78209;SDS011;67485;48.816;9.930;2023-03-31T12:07:00;1.95;;;0.70;;
78209;SDS011;67485;48.816;9.930;2023-03-31T12:09:33;3.10;;;0.60;;
78209;SDS011;67485;48.816;9.930;2023-03-31T12:12:38;2.55;;;0.60;;
78209;SDS011;67485;48.816;9.930;2023-03-31T12:18:20;0.85;;;0.50;;
78209;SDS011;67485;48.816;9.930;2023-03-31T12:20:46;1.42;;;0.50;;
78209;SDS011;67485;48.816;9.930;2023-03-31T12:23:18;1.67;;;0.50;;
78209;SDS011;67485;48.816;9.930;2023-03-31T12:25:51;2.15;;;0.60;;
78209;SDS011;67485;48.816;9.930;2023-03-31T12:28:20;3.03;;;0.52;;
78209;SDS011;67485;48.816;9.930;2023-03-31T12:30:47;2.80;;;0.68;;
78209;SDS011;67485;48.816;9.930;2023-03-31T12:33:27;1.90;;;0.60;;
78209;SDS011;67485;48.816;9.930;2023-03-31T12:41:07;1.52;;;0.60;;
78209;SDS011;67485;48.816;9.930;2023-03-31T12:44:03;2.00;;;0.80;;
78209;SDS011;67485;48.816;9.930;2023-03-31T12:58:45;2.50;;;0.80;;
78209;SDS011;67485;48.816;9.930;2023-03-31T13:09:04;1.83;;;0.80;;
78209;SDS011;67485;48.816;9.930;2023-03-31T13:11:51;1.88;;;0.77;;
78209;SDS011;67485;48.816;9.930;2023-03-31T13:14:21;1.48;;;0.60;;
78209;SDS011;67485;48.816;9.930;2023-03-31T13:16:49;1.70;;;0.90;;
78209;SDS011;67485;48.816;9.930;2023-03-31T13:19:51;4.17;;;0.80;;
78209;SDS011;67485;48.816;9.930;2023-03-31T13:22:28;2.38;;;0.80;;
78209;SDS011;67485;48.816;9.930;2023-03-31T13:25:25;2.60;;;0.70;;
78209;SDS011;67485;48.816;9.930;2023-03-31T13:27:58;2.83;;;0.90;;
78209;SDS011;67485;48.816;9.930;2023-03-31T13:33:06;2.37;;;0.90;;
78209;SDS011;67485;48.816;9.930;2023-03-31T13:35:34;2.17;;;0.90;;
78209;SDS011;67485;48.816;9.930;2023-03-31T13:38:18;2.75;;;0.95;;
78209;SDS011;67485;48.816;9.930;2023-03-31T13:40:59;3.10;;;0.77;;
78209;SDS011;67485;48.816;9.930;2023-03-31T13:43:53;3.45;;;0.80;;
78209;SDS011;67485;48.816;9.930;2023-03-31T13:54:18;2.75;;;0.70;;
78209;SDS011;67485;48.816;9.930;2023-03-31T14:08:35;3.25;;;0.95;;
78209;SDS011;67485;48.816;9.930;2023-03-31T14:13:59;2.60;;;0.93;;
78209;SDS011;67485;48.816;9.930;2023-03-31T14:16:30;6.70;;;0.93;;
78209;SDS011;67485;48.816;9.930;2023-03-31T14:19:13;5.30;;;1.60;;
78209;SDS011;67485;48.816;9.930;2023-03-31T14:29:58;4.25;;;0.80;;
78209;SDS011;67485;48.816;9.930;2023-03-31T14:35:25;2.03;;;0.50;;
78209;SDS011;67485;48.816;9.930;2023-03-31T14:37:56;2.35;;;0.60;;
78209;SDS011;67485;48.816;9.930;2023-03-31T14:40:27;2.87;;;0.70;;
78209;SDS011;67485;48.816;9.930;2023-03-31T14:42:52;1.70;;;0.50;;
78209;SDS011;67485;48.816;9.930;2023-03-31T14:45:22;3.60;;;0.60;;
78209;SDS011;67485;48.816;9.930;2023-03-31T14:47:53;2.83;;;0.80;;
78209;SDS011;67485;48.816;9.930;2023-03-31T14:50:20;4.40;;;0.75;;
78209;SDS011;67485;48.816;9.930;2023-03-31T14:52:52;1.23;;;0.60;;
78209;SDS011;67485;48.816;9.930;2023-03-31T14:55:20;1.70;;;0.60;;
78209;SDS011;67485;48.816;9.930;2023-03-31T14:57:48;1.63;;;0.50;;
78209;SDS011;67485;48.816;9.930;2023-03-31T15:00:22;1.50;;;0.50;;
78209;SDS011;67485;48.816;9.930;2023-03-31T15:02:51;3.47;;;1.00;;
78209;SDS011;67485;48.816;9.930;2023-03-31T15:05:20;4.28;;;1.25;;
78209;SDS011;67485;48.816;9.930;2023-03-31T15:07:55;3.50;;;1.30;;
78209;SDS011;67485;48.816;9.930;2023-03-31T15:10:28;6.88;;;3.03;;
78209;SDS011;67485;48.816;9.930;2023-03-31T15:13:18;6.60;;;2.08;;
78209;SDS011;67485;48.816;9.930;2023-03-31T15:15:47;3.22;;;1.13;;
78209;SDS011;67485;48.816;9.930;2023-03-31T15:18:13;14.23;;;4.93;;
78209;SDS011;67485;48.816;9.930;2023-03-31T15:20:41;5.05;;;1.30;;
78209;SDS011;67485;48.816;9.930;2023-03-31T15:23:18;5.20;;;1.45;;
78209;SDS011;67485;48.816;9.930;2023-03-31T15:26:02;6.90;;;2.38;;
78209;SDS011;67485;48.816;9.930;2023-03-31T15:28:47;2.90;;;1.40;;
78209;SDS011;67485;48.816;9.930;2023-03-31T15:31:17;1.80;;;0.83;;
78209;SDS011;67485;48.816;9.930;2023-03-31T15:33:42;2.75;;;0.80;;
78209;SDS011;67485;48.816;9.930;2023-03-31T15:36:11;2.13;;;0.60;;
78209;SDS011;67485;48.816;9.930;2023-03-31T15:38:37;2.30;;;0.70;;
78209;SDS011;67485;48.816;9.930;2023-03-31T15:41:09;2.00;;;0.60;;
78209;SDS011;67485;48.816;9.930;2023-03-31T15:49:03;1.85;;;0.60;;
78209;SDS011;67485;48.816;9.930;2023-03-31T15:51:35;3.92;;;1.08;;
78209;SDS011;67485;48.816;9.930;2023-03-31T15:54:02;3.10;;;0.80;;
78209;SDS011;67485;48.816;9.930;2023-03-31T15:56:29;1.58;;;0.60;;
78209;SDS011;67485;48.816;9.930;2023-03-31T15:58:59;2.53;;;0.75;;
78209;SDS011;67485;48.816;9.930;2023-03-31T16:01:45;2.10;;;0.60;;
78209;SDS011;67485;48.816;9.930;2023-03-31T16:04:12;4.00;;;0.80;;
78209;SDS011;67485;48.816;9.930;2023-03-31T16:06:46;3.15;;;0.52;;
78209;SDS011;67485;48.816;9.930;2023-03-31T16:09:20;1.77;;;0.60;;
78209;SDS011;67485;48.816;9.930;2023-03-31T16:11:58;1.73;;;0.60;;
78209;SDS011;67485;48.816;9.930;2023-03-31T16:14:32;1.98;;;0.70;;
78209;SDS011;67485;48.816;9.930;2023-03-31T16:17:05;2.23;;;0.60;;
78209;SDS011;67485;48.816;9.930;2023-03-31T16:19:40;1.77;;;0.60;;
78209;SDS011;67485;48.816;9.930;2023-03-31T16:22:14;2.78;;;0.70;;
78209;SDS011;67485;48.816;9.930;2023-03-31T16:24:47;2.17;;;0.70;;
78209;SDS011;67485;48.816;9.930;2023-03-31T16:27:14;1.50;;;0.60;;
78209;SDS011;67485;48.816;9.930;2023-03-31T16:29:40;2.57;;;0.70;;
78209;SDS011;67485;48.816;9.930;2023-03-31T16:32:13;3.92;;;0.90;;
78209;SDS011;67485;48.816;9.930;2023-03-31T16:34:51;2.83;;;0.90;;
78209;SDS011;67485;48.816;9.930;2023-03-31T16:37:23;3.92;;;1.40;;
78209;SDS011;67485;48.816;9.930;2023-03-31T16:39:50;3.27;;;1.00;;
78209;SDS011;67485;48.816;9.930;2023-03-31T16:42:16;3.30;;;0.80;;
78209;SDS011;67485;48.816;9.930;2023-03-31T16:44:43;4.50;;;1.20;;
78209;SDS011;67485;48.816;9.930;2023-03-31T16:47:13;5.72;;;1.20;;
78209;SDS011;67485;48.816;9.930;2023-03-31T16:49:39;4.68;;;1.02;;
78209;SDS011;67485;48.816;9.930;2023-03-31T16:52:05;2.17;;;0.80;;
78209;SDS011;67485;48.816;9.930;2023-03-31T16:54:33;2.58;;;0.88;;
78209;SDS011;67485;48.816;9.930;2023-03-31T16:56:59;3.90;;;0.90;;
78209;SDS011;67485;48.816;9.930;2023-03-31T16:59:26;2.38;;;0.70;;
78209;SDS011;67485;48.816;9.930;2023-03-31T17:01:52;3.08;;;0.85;;
78209;SDS011;67485;48.816;9.930;2023-03-31T17:04:18;2.97;;;0.80;;
78209;SDS011;67485;48.816;9.930;2023-03-31T17:06:44;2.95;;;0.88;;
78209;SDS011;67485;48.816;9.930;2023-03-31T17:09:10;4.17;;;0.93;;
78209;SDS011;67485;48.816;9.930;2023-03-31T17:11:36;4.15;;;0.98;;
78209;SDS011;67485;48.816;9.930;2023-03-31T17:14:01;2.67;;;0.87;;
78209;SDS011;67485;48.816;9.930;2023-03-31T17:16:29;3.47;;;0.90;;
78209;SDS011;67485;48.816;9.930;2023-03-31T17:18:56;3.15;;;0.80;;
78209;SDS011;67485;48.816;9.930;2023-03-31T17:21:21;3.07;;;0.97;;
78209;SDS011;67485;48.816;9.930;2023-03-31T17:23:47;4.03;;;0.90;;
78209;SDS011;67485;48.816;9.930;2023-03-31T17:26:14;2.75;;;0.75;;
78209;SDS011;67485;48.816;9.930;2023-03-31T17:28:40;4.07;;;1.33;;
78209;SDS011;67485;48.816;9.930;2023-03-31T17:31:17;3.17;;;0.90;;
78209;SDS011;67485;48.816;9.930;2023-03-31T17:33:44;3.87;;;1.13;;
78209;SDS011;67485;48.816;9.930;2023-03-31T17:36:10;3.53;;;1.00;;
78209;SDS011;67485;48.816;9.930;2023-03-31T17:38:36;5.82;;;1.48;;
78209;SDS011;67485;48.816;9.930;2023-03-31T17:41:07;4.20;;;1.05;;
78209;SDS011;67485;48.816;9.930;2023-03-31T17:43:34;3.33;;;0.90;;
78209;SDS011;67485;48.816;9.930;2023-03-31T17:46:04;3.00;;;0.90;;
78209;SDS011;67485;48.816;9.930;2023-03-31T17:48:32;2.97;;;1.05;;
78209;SDS011;67485;48.816;9.930;2023-03-31T17:51:05;4.05;;;1.30;;
78209;SDS011;67485;48.816;9.930;2023-03-31T17:53:37;2.63;;;0.80;;
78209;SDS011;67485;48.816;9.930;2023-03-31T17:56:04;3.92;;;1.15;;
78209;SDS011;67485;48.816;9.930;2023-03-31T17:58:30;2.77;;;1.20;;
78209;SDS011;67485;48.816;9.930;2023-03-31T18:00:57;2.20;;;0.68;;
78209;SDS011;67485;48.816;9.930;2023-03-31T18:03:23;2.80;;;0.90;;
78209;SDS011;67485;48.816;9.930;2023-03-31T18:05:49;1.90;;;0.73;;
78209;SDS011;67485;48.816;9.930;2023-03-31T18:08:15;1.90;;;0.77;;
78209;SDS011;67485;48.816;9.930;2023-03-31T18:10:42;3.38;;;0.93;;
78209;SDS011;67485;48.816;9.930;2023-03-31T18:13:08;2.35;;;0.70;;
78209;SDS011;67485;48.816;9.930;2023-03-31T18:15:34;2.10;;;0.90;;
78209;SDS011;67485;48.816;9.930;2023-03-31T18:18:00;1.57;;;0.60;;